Hauptseite
METAR-TAF:

METAR-TAF

Flughäfen :

Flughafen Lübeck

Lübeck, Deutschland

Breite: 53-49N, Länge: 010-42E, Höhe: 14 m

Beobachtung

Neuester Wetterbericht von vor 6 Stunden und 55 Minuten, um 18:50 UTC
Wind 11 kt aus Nord
Temperatur 3°C
Luftfeuchtigkeit 75%
Luftdruck 1019 hPa
Sichtweite 10 km oder mehr
Durchbrochene Bewölkung in der Höhe von 2300 ft

METAR: EDHL 041850Z 01011KT 9999 BKN023 03/M01 Q1019

Zeit: 02:45 (01:45 UTC)

Prognose

Neuester Wetterbericht von vor 8 Stunden und 45 Minuten, um 17:00 UTC
Gültige Prognose vom 04 um 18 UTC bis 04 um 21 UTC
Wind 4 kt aus Nord
Sichtweite 10 km oder mehr
Durchbrochene Bewölkung in der Höhe von 1400 ft
Übergehend zu
vom 04 um 18 UTC bis 04 um 19 UTC
Leicht bewölkt in der Höhe von 1200 ft
Aufgelockert bewölkt in der Höhe von 3000 ft

TAF: EDHL 041700Z 0418/0421 01004KT 9999 BKN014 BECMG 0418/0419 FEW012 SCT030

Wetterbeobachtungen und Prognosen von mehr als 4000 Flughäfen (METAR und TAF Bericht).

Die verfügbaren Stationen werden durch gelbe und rote Markierungen auf der Karte dargestellt.

Führen Sie die Maus auf sie, um den Namen der Station zu sehen.

Darauf klicken, um die Beobachtung von Wetterbeobachtungen und Prognosen zu sehen.

Um die Karte zu ändern : klicken Sie auf den grünen Tasten mit einem schwarzen Kreuz Zum Vergrößern, auf den grünen Button mit einem Gedankenstrich zu verkleinern, oder auf die grünen Pfeile für benachbarte Karten.


METAR-TAF: